createdAt,value
2022-11-19T07:10:25.291Z,-1.95
2022-11-19T07:13:48.610Z,-1.44
2022-11-19T07:16:51.143Z,-1.21
2022-11-19T07:19:53.607Z,-1.11
2022-11-19T07:22:59.207Z,-0.99
2022-11-19T07:26:03.619Z,-0.96
2022-11-19T08:35:14.618Z,-1.05
2022-11-19T08:38:17.159Z,-0.93
2022-11-19T08:41:36.404Z,-0.73
2022-11-19T08:44:39.088Z,-0.50
2022-11-19T08:47:41.629Z,-0.29
2022-11-19T08:50:45.839Z,-0.04
2022-11-19T08:53:48.414Z,0.03
2022-11-19T08:56:50.936Z,0.07
2022-11-19T08:59:53.412Z,0.19
2022-11-19T09:02:56.049Z,0.28
2022-11-19T09:06:01.277Z,0.41
2022-11-19T09:09:03.866Z,0.35
2022-11-19T09:12:06.926Z,0.48
2022-11-19T09:15:10.294Z,0.65
2022-11-19T09:18:14.519Z,0.57
2022-11-19T09:21:18.459Z,0.70
2022-11-19T09:24:21.314Z,0.71
2022-11-19T09:27:24.068Z,0.79
2022-11-19T09:30:27.108Z,0.91
2022-11-19T09:33:31.613Z,1.01
2022-11-19T09:36:35.405Z,0.87
2022-11-19T09:39:38.264Z,1.18
2022-11-19T09:42:51.754Z,1.36
2022-11-19T09:46:03.233Z,1.50
2022-11-19T09:49:12.071Z,1.69
2022-11-19T09:52:21.031Z,1.62
2022-11-19T09:55:30.321Z,1.77
2022-11-19T09:58:38.743Z,1.84
2022-11-19T10:01:41.261Z,1.88
2022-11-19T10:04:44.155Z,1.88
2022-11-19T10:07:59.683Z,1.98
2022-11-19T10:11:15.532Z,1.82
2022-11-19T10:14:44.460Z,1.88
2022-11-19T10:17:58.970Z,1.88
2022-11-19T10:21:08.095Z,1.86
2022-11-19T10:24:18.199Z,1.92
2022-11-19T10:27:28.735Z,1.98
2022-11-19T10:30:32.134Z,1.92
2022-11-19T10:33:38.309Z,1.90
2022-11-19T10:36:44.140Z,1.95
2022-11-19T10:39:53.163Z,2.40
2022-11-19T10:42:59.741Z,2.66
2022-11-19T10:46:05.361Z,3.12
2022-11-19T10:49:11.571Z,3.04
2022-11-19T10:52:24.825Z,3.04
2022-11-19T10:55:33.204Z,2.73
2022-11-19T10:58:40.114Z,2.65
2022-11-19T11:01:44.774Z,2.52
2022-11-19T11:05:06.645Z,2.30
2022-11-19T11:08:11.790Z,2.07
2022-11-19T11:11:23.642Z,1.88
2022-11-19T11:14:44.364Z,1.62
2022-11-19T11:17:48.117Z,1.43
2022-11-19T11:20:52.892Z,1.53
2022-11-19T11:23:56.499Z,1.32
2022-11-19T11:27:25.854Z,1.38
2022-11-19T11:30:28.473Z,1.24
2022-11-19T11:33:34.197Z,1.45
2022-11-19T11:36:37.991Z,1.55
2022-11-19T11:39:44.189Z,1.64
2022-11-19T11:42:48.140Z,1.48
2022-11-19T11:45:57.790Z,1.56
2022-11-19T11:49:06.888Z,1.33
2022-11-19T11:52:19.893Z,1.60
2022-11-19T11:55:32.451Z,1.40
2022-11-19T11:58:36.240Z,1.65
2022-11-19T12:01:39.106Z,1.80
2022-11-19T12:04:42.368Z,1.91
2022-11-19T12:08:03.963Z,2.01
2022-11-19T12:11:16.114Z,1.96
2022-11-19T12:14:24.858Z,2.19
2022-11-19T12:17:41.315Z,2.44
2022-11-19T12:20:51.129Z,2.18
2022-11-19T12:24:06.631Z,2.34
2022-11-19T12:27:20.795Z,2.36
2022-11-19T12:30:30.397Z,2.20
2022-11-19T12:33:54.146Z,2.15
2022-11-19T12:37:06.622Z,2.25
2022-11-19T12:40:21.879Z,2.43
2022-11-19T12:43:44.729Z,2.40
2022-11-19T12:46:54.939Z,2.45
2022-11-19T12:50:11.272Z,2.53
2022-11-19T12:53:36.497Z,2.53
2022-11-19T12:56:47.599Z,2.59
2022-11-19T13:00:14.058Z,2.61
2022-11-19T13:03:21.997Z,2.61
2022-11-19T13:06:32.342Z,2.63
2022-11-19T13:09:39.655Z,2.73
